sensor_id;sensor_type;location;lat;lon;timestamp;P1;durP1;ratioP1;P2;durP2;ratioP2
61677;SDS011;47575;52.054;4.334;2022-09-09T00:01:11;11.95;;;8.40;;
61677;SDS011;47575;52.054;4.334;2022-09-09T00:03:53;15.30;;;8.90;;
61677;SDS011;47575;52.054;4.334;2022-09-09T00:06:24;14.95;;;9.23;;
61677;SDS011;47575;52.054;4.334;2022-09-09T00:08:58;18.23;;;9.52;;
61677;SDS011;47575;52.054;4.334;2022-09-09T00:11:30;20.00;;;9.93;;
61677;SDS011;47575;52.054;4.334;2022-09-09T00:14:08;15.75;;;9.50;;
61677;SDS011;47575;52.054;4.334;2022-09-09T00:16:43;15.95;;;10.27;;
61677;SDS011;47575;52.054;4.334;2022-09-09T00:19:20;15.68;;;10.02;;
61677;SDS011;47575;52.054;4.334;2022-09-09T00:21:53;17.42;;;10.50;;
61677;SDS011;47575;52.054;4.334;2022-09-09T00:24:32;16.13;;;10.32;;
61677;SDS011;47575;52.054;4.334;2022-09-09T00:27:11;16.35;;;11.18;;
61677;SDS011;47575;52.054;4.334;2022-09-09T00:29:47;18.85;;;11.75;;
61677;SDS011;47575;52.054;4.334;2022-09-09T00:32:20;19.60;;;12.25;;
61677;SDS011;47575;52.054;4.334;2022-09-09T00:34:49;22.20;;;12.43;;
61677;SDS011;47575;52.054;4.334;2022-09-09T00:37:21;21.85;;;13.80;;
61677;SDS011;47575;52.054;4.334;2022-09-09T00:39:51;20.25;;;13.95;;
61677;SDS011;47575;52.054;4.334;2022-09-09T00:42:24;22.80;;;15.32;;
61677;SDS011;47575;52.054;4.334;2022-09-09T00:44:58;24.15;;;18.25;;
61677;SDS011;47575;52.054;4.334;2022-09-09T00:47:36;23.55;;;18.00;;
61677;SDS011;47575;52.054;4.334;2022-09-09T00:50:12;24.08;;;18.90;;
61677;SDS011;47575;52.054;4.334;2022-09-09T00:55:26;30.42;;;19.88;;
61677;SDS011;47575;52.054;4.334;2022-09-09T00:58:01;26.42;;;19.13;;
61677;SDS011;47575;52.054;4.334;2022-09-09T01:00:30;25.65;;;18.15;;
61677;SDS011;47575;52.054;4.334;2022-09-09T01:03:10;28.67;;;18.77;;
61677;SDS011;47575;52.054;4.334;2022-09-09T01:05:48;25.40;;;18.33;;
61677;SDS011;47575;52.054;4.334;2022-09-09T01:08:28;27.77;;;17.42;;
61677;SDS011;47575;52.054;4.334;2022-09-09T01:11:07;30.02;;;18.90;;
61677;SDS011;47575;52.054;4.334;2022-09-09T01:13:42;26.17;;;18.05;;
61677;SDS011;47575;52.054;4.334;2022-09-09T01:16:14;25.50;;;16.67;;
61677;SDS011;47575;52.054;4.334;2022-09-09T01:18:44;27.67;;;15.32;;
61677;SDS011;47575;52.054;4.334;2022-09-09T01:21:17;24.48;;;15.00;;
61677;SDS011;47575;52.054;4.334;2022-09-09T01:24:01;20.50;;;14.63;;
61677;SDS011;47575;52.054;4.334;2022-09-09T01:26:57;21.95;;;13.18;;
61677;SDS011;47575;52.054;4.334;2022-09-09T01:29:27;19.60;;;11.90;;
61677;SDS011;47575;52.054;4.334;2022-09-09T01:31:56;15.32;;;10.65;;
61677;SDS011;47575;52.054;4.334;2022-09-09T01:34:25;15.15;;;8.82;;
61677;SDS011;47575;52.054;4.334;2022-09-09T01:36:58;14.55;;;8.48;;
61677;SDS011;47575;52.054;4.334;2022-09-09T01:39:30;15.48;;;8.35;;
61677;SDS011;47575;52.054;4.334;2022-09-09T01:42:04;17.05;;;8.15;;
61677;SDS011;47575;52.054;4.334;2022-09-09T01:44:34;14.25;;;7.50;;
61677;SDS011;47575;52.054;4.334;2022-09-09T01:47:03;11.93;;;7.25;;
61677;SDS011;47575;52.054;4.334;2022-09-09T01:49:32;17.33;;;7.97;;
61677;SDS011;47575;52.054;4.334;2022-09-09T01:54:36;14.93;;;7.18;;
61677;SDS011;47575;52.054;4.334;2022-09-09T01:57:13;16.40;;;7.32;;
61677;SDS011;47575;52.054;4.334;2022-09-09T01:59:48;16.05;;;7.40;;
61677;SDS011;47575;52.054;4.334;2022-09-09T02:02:23;16.27;;;6.60;;
61677;SDS011;47575;52.054;4.334;2022-09-09T02:05:11;12.23;;;5.72;;
61677;SDS011;47575;52.054;4.334;2022-09-09T02:07:46;11.63;;;5.20;;
61677;SDS011;47575;52.054;4.334;2022-09-09T02:10:32;9.13;;;4.22;;
61677;SDS011;47575;52.054;4.334;2022-09-09T02:13:13;9.85;;;4.00;;
61677;SDS011;47575;52.054;4.334;2022-09-09T02:15:44;9.95;;;3.10;;
61677;SDS011;47575;52.054;4.334;2022-09-09T02:18:18;10.95;;;3.20;;
61677;SDS011;47575;52.054;4.334;2022-09-09T02:20:53;8.75;;;2.55;;
61677;SDS011;47575;52.054;4.334;2022-09-09T02:23:20;12.98;;;2.65;;
61677;SDS011;47575;52.054;4.334;2022-09-09T02:25:51;7.13;;;2.30;;
61677;SDS011;47575;52.054;4.334;2022-09-09T02:28:25;9.98;;;2.47;;
61677;SDS011;47575;52.054;4.334;2022-09-09T02:30:55;7.35;;;2.33;;
61677;SDS011;47575;52.054;4.334;2022-09-09T02:33:30;8.10;;;2.55;;
61677;SDS011;47575;52.054;4.334;2022-09-09T02:36:02;11.80;;;2.97;;
61677;SDS011;47575;52.054;4.334;2022-09-09T02:38:33;10.07;;;3.40;;
61677;SDS011;47575;52.054;4.334;2022-09-09T02:41:08;10.48;;;3.20;;
61677;SDS011;47575;52.054;4.334;2022-09-09T02:43:37;9.85;;;2.90;;
61677;SDS011;47575;52.054;4.334;2022-09-09T02:46:13;9.25;;;2.80;;
61677;SDS011;47575;52.054;4.334;2022-09-09T02:48:52;11.27;;;3.40;;
61677;SDS011;47575;52.054;4.334;2022-09-09T02:51:32;11.07;;;3.00;;
61677;SDS011;47575;52.054;4.334;2022-09-09T02:54:10;11.43;;;3.10;;
61677;SDS011;47575;52.054;4.334;2022-09-09T02:56:44;9.88;;;3.13;;
61677;SDS011;47575;52.054;4.334;2022-09-09T02:59:18;9.63;;;3.25;;
61677;SDS011;47575;52.054;4.334;2022-09-09T03:01:47;9.77;;;2.90;;
61677;SDS011;47575;52.054;4.334;2022-09-09T03:04:14;8.90;;;2.95;;
61677;SDS011;47575;52.054;4.334;2022-09-09T03:06:41;9.93;;;3.03;;
61677;SDS011;47575;52.054;4.334;2022-09-09T03:09:16;9.55;;;2.83;;
61677;SDS011;47575;52.054;4.334;2022-09-09T03:11:43;7.22;;;2.60;;
61677;SDS011;47575;52.054;4.334;2022-09-09T03:14:13;8.20;;;3.00;;
61677;SDS011;47575;52.054;4.334;2022-09-09T03:16:41;8.80;;;2.97;;
61677;SDS011;47575;52.054;4.334;2022-09-09T03:19:10;8.45;;;2.55;;
61677;SDS011;47575;52.054;4.334;2022-09-09T03:21:37;8.32;;;2.67;;
61677;SDS011;47575;52.054;4.334;2022-09-09T03:24:05;7.55;;;2.70;;
61677;SDS011;47575;52.054;4.334;2022-09-09T03:26:33;10.35;;;2.90;;
61677;SDS011;47575;52.054;4.334;2022-09-09T03:29:00;10.25;;;2.72;;
61677;SDS011;47575;52.054;4.334;2022-09-09T03:31:29;8.88;;;2.83;;
61677;SDS011;47575;52.054;4.334;2022-09-09T03:33:59;10.18;;;2.90;;
61677;SDS011;47575;52.054;4.334;2022-09-09T03:36:29;9.52;;;2.97;;
61677;SDS011;47575;52.054;4.334;2022-09-09T03:38:57;8.18;;;2.88;;
61677;SDS011;47575;52.054;4.334;2022-09-09T03:41:27;6.50;;;2.75;;
61677;SDS011;47575;52.054;4.334;2022-09-09T03:43:55;9.82;;;2.40;;
61677;SDS011;47575;52.054;4.334;2022-09-09T03:46:24;9.03;;;2.97;;
61677;SDS011;47575;52.054;4.334;2022-09-09T03:48:53;12.43;;;2.80;;
61677;SDS011;47575;52.054;4.334;2022-09-09T03:51:21;9.55;;;2.60;;
61677;SDS011;47575;52.054;4.334;2022-09-09T03:53:49;7.82;;;2.50;;
61677;SDS011;47575;52.054;4.334;2022-09-09T03:56:16;10.93;;;2.38;;
61677;SDS011;47575;52.054;4.334;2022-09-09T03:58:45;9.85;;;2.65;;
61677;SDS011;47575;52.054;4.334;2022-09-09T04:01:12;11.00;;;3.20;;
61677;SDS011;47575;52.054;4.334;2022-09-09T04:03:43;7.72;;;2.63;;
61677;SDS011;47575;52.054;4.334;2022-09-09T04:06:12;10.25;;;2.75;;
61677;SDS011;47575;52.054;4.334;2022-09-09T04:08:44;9.67;;;2.37;;
61677;SDS011;47575;52.054;4.334;2022-09-09T04:11:14;8.75;;;2.33;;
61677;SDS011;47575;52.054;4.334;2022-09-09T04:13:42;9.27;;;2.45;;
61677;SDS011;47575;52.054;4.334;2022-09-09T04:16:12;8.65;;;2.60;;
61677;SDS011;47575;52.054;4.334;2022-09-09T04:18:41;9.40;;;2.88;;
61677;SDS011;47575;52.054;4.334;2022-09-09T04:21:09;8.88;;;2.80;;
61677;SDS011;47575;52.054;4.334;2022-09-09T04:23:38;10.52;;;2.58;;
61677;SDS011;47575;52.054;4.334;2022-09-09T04:26:07;8.70;;;2.35;;
61677;SDS011;47575;52.054;4.334;2022-09-09T04:28:35;7.43;;;1.88;;
61677;SDS011;47575;52.054;4.334;2022-09-09T04:31:06;8.63;;;2.55;;
61677;SDS011;47575;52.054;4.334;2022-09-09T04:33:36;11.10;;;2.58;;
61677;SDS011;47575;52.054;4.334;2022-09-09T04:36:05;9.25;;;2.65;;
61677;SDS011;47575;52.054;4.334;2022-09-09T04:38:33;8.07;;;2.35;;
61677;SDS011;47575;52.054;4.334;2022-09-09T04:41:00;8.50;;;2.63;;
61677;SDS011;47575;52.054;4.334;2022-09-09T04:43:29;10.63;;;2.83;;
61677;SDS011;47575;52.054;4.334;2022-09-09T04:45:57;10.73;;;2.85;;
61677;SDS011;47575;52.054;4.334;2022-09-09T04:48:26;12.55;;;3.20;;
61677;SDS011;47575;52.054;4.334;2022-09-09T04:50:55;10.35;;;2.97;;
61677;SDS011;47575;52.054;4.334;2022-09-09T04:53:23;9.70;;;3.50;;
61677;SDS011;47575;52.054;4.334;2022-09-09T04:55:52;11.25;;;3.10;;
61677;SDS011;47575;52.054;4.334;2022-09-09T04:58:20;10.02;;;3.22;;
61677;SDS011;47575;52.054;4.334;2022-09-09T05:00:51;8.15;;;2.78;;
61677;SDS011;47575;52.054;4.334;2022-09-09T05:03:19;11.75;;;3.67;;
61677;SDS011;47575;52.054;4.334;2022-09-09T05:05:46;10.60;;;2.97;;
61677;SDS011;47575;52.054;4.334;2022-09-09T05:08:14;10.05;;;3.13;;
61677;SDS011;47575;52.054;4.334;2022-09-09T05:10:41;11.13;;;3.33;;
61677;SDS011;47575;52.054;4.334;2022-09-09T05:13:09;12.15;;;3.17;;
61677;SDS011;47575;52.054;4.334;2022-09-09T05:15:37;11.63;;;4.07;;
61677;SDS011;47575;52.054;4.334;2022-09-09T05:18:06;9.88;;;3.50;;
61677;SDS011;47575;52.054;4.334;2022-09-09T05:20:34;11.48;;;3.92;;
61677;SDS011;47575;52.054;4.334;2022-09-09T05:23:02;14.38;;;4.35;;
61677;SDS011;47575;52.054;4.334;2022-09-09T05:25:31;8.60;;;3.42;;
61677;SDS011;47575;52.054;4.334;2022-09-09T05:27:59;13.32;;;4.25;;
61677;SDS011;47575;52.054;4.334;2022-09-09T05:30:26;11.02;;;3.95;;
61677;SDS011;47575;52.054;4.334;2022-09-09T05:32:55;9.20;;;3.83;;
61677;SDS011;47575;52.054;4.334;2022-09-09T05:35:24;9.55;;;3.80;;
61677;SDS011;47575;52.054;4.334;2022-09-09T05:37:52;98.60;;;9.23;;
61677;SDS011;47575;52.054;4.334;2022-09-09T05:40:19;266.95;;;20.67;;
61677;SDS011;47575;52.054;4.334;2022-09-09T05:42:48;12.15;;;4.95;;
61677;SDS011;47575;52.054;4.334;2022-09-09T05:45:15;14.75;;;4.72;;
61677;SDS011;47575;52.054;4.334;2022-09-09T05:47:42;10.57;;;4.30;;
61677;SDS011;47575;52.054;4.334;2022-09-09T05:50:13;11.85;;;3.78;;
61677;SDS011;47575;52.054;4.334;2022-09-09T05:52:41;10.57;;;3.83;;
61677;SDS011;47575;52.054;4.334;2022-09-09T05:55:10;9.18;;;3.60;;
61677;SDS011;47575;52.054;4.334;2022-09-09T05:57:37;13.68;;;3.70;;
61677;SDS011;47575;52.054;4.334;2022-09-09T06:00:05;11.20;;;3.40;;
61677;SDS011;47575;52.054;4.334;2022-09-09T06:02:39;13.90;;;3.85;;
61677;SDS011;47575;52.054;4.334;2022-09-09T06:05:09;13.27;;;3.75;;
61677;SDS011;47575;52.054;4.334;2022-09-09T06:07:37;13.05;;;3.58;;
61677;SDS011;47575;52.054;4.334;2022-09-09T06:10:09;13.85;;;4.18;;
61677;SDS011;47575;52.054;4.334;2022-09-09T06:12:39;10.25;;;4.13;;
61677;SDS011;47575;52.054;4.334;2022-09-09T06:15:07;16.33;;;4.63;;
61677;SDS011;47575;52.054;4.334;2022-09-09T06:17:35;12.90;;;4.43;;
61677;SDS011;47575;52.054;4.334;2022-09-09T06:20:02;14.30;;;4.55;;
61677;SDS011;47575;52.054;4.334;2022-09-09T06:22:32;15.88;;;5.10;;
61677;SDS011;47575;52.054;4.334;2022-09-09T06:24:59;12.73;;;4.82;;
61677;SDS011;47575;52.054;4.334;2022-09-09T06:27:29;13.82;;;5.55;;
61677;SDS011;47575;52.054;4.334;2022-09-09T06:29:57;14.00;;;5.50;;
61677;SDS011;47575;52.054;4.334;2022-09-09T06:32:24;15.05;;;5.80;;
61677;SDS011;47575;52.054;4.334;2022-09-09T06:34:53;16.92;;;5.72;;
61677;SDS011;47575;52.054;4.334;2022-09-09T06:37:20;15.88;;;5.82;;
61677;SDS011;47575;52.054;4.334;2022-09-09T06:39:50;15.85;;;5.97;;
61677;SDS011;47575;52.054;4.334;2022-09-09T06:42:17;12.52;;;5.97;;
61677;SDS011;47575;52.054;4.334;2022-09-09T06:45:18;17.70;;;6.82;;
61677;SDS011;47575;52.054;4.334;2022-09-09T06:47:54;13.18;;;6.78;;
61677;SDS011;47575;52.054;4.334;2022-09-09T06:50:22;10.75;;;5.85;;
61677;SDS011;47575;52.054;4.334;2022-09-09T06:52:49;11.85;;;5.55;;
61677;SDS011;47575;52.054;4.334;2022-09-09T06:55:17;16.05;;;5.47;;
61677;SDS011;47575;52.054;4.334;2022-09-09T06:57:46;14.88;;;5.50;;
61677;SDS011;47575;52.054;4.334;2022-09-09T07:00:19;13.38;;;5.63;;
61677;SDS011;47575;52.054;4.334;2022-09-09T07:02:47;14.93;;;5.70;;
61677;SDS011;47575;52.054;4.334;2022-09-09T07:05:17;14.82;;;5.43;;
61677;SDS011;47575;52.054;4.334;2022-09-09T07:07:45;14.68;;;5.45;;
61677;SDS011;47575;52.054;4.334;2022-09-09T07:10:15;15.10;;;5.25;;
61677;SDS011;47575;52.054;4.334;2022-09-09T07:12:43;15.00;;;5.85;;
61677;SDS011;47575;52.054;4.334;2022-09-09T07:15:12;12.63;;;6.10;;
61677;SDS011;47575;52.054;4.334;2022-09-09T07:17:44;14.32;;;6.00;;
61677;SDS011;47575;52.054;4.334;2022-09-09T07:20:12;15.18;;;6.30;;
61677;SDS011;47575;52.054;4.334;2022-09-09T07:22:40;14.10;;;5.60;;
61677;SDS011;47575;52.054;4.334;2022-09-09T07:25:09;15.98;;;6.15;;
61677;SDS011;47575;52.054;4.334;2022-09-09T07:27:37;14.40;;;5.93;;
61677;SDS011;47575;52.054;4.334;2022-09-09T07:30:05;14.02;;;6.00;;
61677;SDS011;47575;52.054;4.334;2022-09-09T07:32:34;14.25;;;5.90;;
61677;SDS011;47575;52.054;4.334;2022-09-09T07:35:03;16.45;;;5.85;;
61677;SDS011;47575;52.054;4.334;2022-09-09T07:37:31;14.07;;;6.10;;
61677;SDS011;47575;52.054;4.334;2022-09-09T07:39:58;12.45;;;5.22;;
61677;SDS011;47575;52.054;4.334;2022-09-09T07:42:26;15.25;;;5.45;;
61677;SDS011;47575;52.054;4.334;2022-09-09T07:44:53;12.07;;;5.20;;
61677;SDS011;47575;52.054;4.334;2022-09-09T07:47:21;17.33;;;5.40;;
61677;SDS011;47575;52.054;4.334;2022-09-09T07:49:50;14.77;;;5.85;;
61677;SDS011;47575;52.054;4.334;2022-09-09T07:52:27;12.98;;;5.05;;
61677;SDS011;47575;52.054;4.334;2022-09-09T07:54:58;15.27;;;5.90;;
61677;SDS011;47575;52.054;4.334;2022-09-09T07:57:26;12.98;;;5.85;;
61677;SDS011;47575;52.054;4.334;2022-09-09T07:59:54;13.50;;;5.32;;
61677;SDS011;47575;52.054;4.334;2022-09-09T08:02:22;16.08;;;5.57;;
61677;SDS011;47575;52.054;4.334;2022-09-09T08:04:51;12.98;;;5.00;;
61677;SDS011;47575;52.054;4.334;2022-09-09T08:07:19;11.60;;;4.50;;
61677;SDS011;47575;52.054;4.334;2022-09-09T08:09:52;9.50;;;4.07;;
61677;SDS011;47575;52.054;4.334;2022-09-09T08:12:27;10.55;;;4.45;;
61677;SDS011;47575;52.054;4.334;2022-09-09T08:14:55;11.93;;;4.63;;
61677;SDS011;47575;52.054;4.334;2022-09-09T08:17:26;13.95;;;4.28;;
61677;SDS011;47575;52.054;4.334;2022-09-09T08:19:54;12.43;;;4.25;;
61677;SDS011;47575;52.054;4.334;2022-09-09T08:22:25;12.10;;;4.65;;
61677;SDS011;47575;52.054;4.334;2022-09-09T08:24:55;11.80;;;4.35;;
61677;SDS011;47575;52.054;4.334;2022-09-09T08:27:23;11.80;;;3.85;;
61677;SDS011;47575;52.054;4.334;2022-09-09T08:29:52;13.85;;;4.30;;
61677;SDS011;47575;52.054;4.334;2022-09-09T08:32:19;12.40;;;3.95;;
61677;SDS011;47575;52.054;4.334;2022-09-09T08:34:47;12.18;;;4.10;;
61677;SDS011;47575;52.054;4.334;2022-09-09T08:39:47;10.48;;;3.72;;
61677;SDS011;47575;52.054;4.334;2022-09-09T08:45:11;15.93;;;3.85;;
61677;SDS011;47575;52.054;4.334;2022-09-09T08:47:50;11.50;;;3.70;;
61677;SDS011;47575;52.054;4.334;2022-09-09T08:50:24;14.00;;;3.88;;
61677;SDS011;47575;52.054;4.334;2022-09-09T08:53:03;12.48;;;3.78;;
61677;SDS011;47575;52.054;4.334;2022-09-09T08:55:38;11.25;;;3.42;;
61677;SDS011;47575;52.054;4.334;2022-09-09T08:58:13;8.80;;;3.47;;
61677;SDS011;47575;52.054;4.334;2022-09-09T09:00:57;14.70;;;4.10;;
61677;SDS011;47575;52.054;4.334;2022-09-09T09:03:43;95.13;;;8.02;;
61677;SDS011;47575;52.054;4.334;2022-09-09T09:06:20;14.13;;;4.47;;
61677;SDS011;47575;52.054;4.334;2022-09-09T09:08:57;13.40;;;4.18;;
61677;SDS011;47575;52.054;4.334;2022-09-09T09:11:34;10.80;;;3.97;;
61677;SDS011;47575;52.054;4.334;2022-09-09T09:14:07;11.80;;;4.05;;
61677;SDS011;47575;52.054;4.334;2022-09-09T09:16:39;12.32;;;5.75;;
61677;SDS011;47575;52.054;4.334;2022-09-09T09:19:14;12.45;;;4.03;;
61677;SDS011;47575;52.054;4.334;2022-09-09T09:21:44;10.25;;;3.60;;
61677;SDS011;47575;52.054;4.334;2022-09-09T09:24:16;12.68;;;4.32;;
61677;SDS011;47575;52.054;4.334;2022-09-09T09:26:47;9.48;;;3.67;;
61677;SDS011;47575;52.054;4.334;2022-09-09T09:29:16;13.75;;;3.72;;
61677;SDS011;47575;52.054;4.334;2022-09-09T09:31:47;118.10;;;9.18;;
61677;SDS011;47575;52.054;4.334;2022-09-09T09:34:18;12.38;;;3.85;;
61677;SDS011;47575;52.054;4.334;2022-09-09T09:36:52;10.98;;;3.50;;
61677;SDS011;47575;52.054;4.334;2022-09-09T09:39:24;12.77;;;3.28;;
61677;SDS011;47575;52.054;4.334;2022-09-09T09:41:56;11.35;;;3.33;;
61677;SDS011;47575;52.054;4.334;2022-09-09T09:44:28;9.13;;;2.95;;
61677;SDS011;47575;52.054;4.334;2022-09-09T09:47:06;9.18;;;3.13;;
61677;SDS011;47575;52.054;4.334;2022-09-09T09:49:35;16.15;;;3.88;;
61677;SDS011;47575;52.054;4.334;2022-09-09T09:52:03;15.18;;;5.00;;
61677;SDS011;47575;52.054;4.334;2022-09-09T09:54:32;13.70;;;5.28;;
61677;SDS011;47575;52.054;4.334;2022-09-09T09:57:08;16.60;;;6.50;;
61677;SDS011;47575;52.054;4.334;2022-09-09T10:02:13;16.27;;;6.20;;
61677;SDS011;47575;52.054;4.334;2022-09-09T10:04:42;16.25;;;6.07;;
61677;SDS011;47575;52.054;4.334;2022-09-09T10:07:11;15.35;;;5.50;;
61677;SDS011;47575;52.054;4.334;2022-09-09T10:09:39;12.07;;;5.90;;
61677;SDS011;47575;52.054;4.334;2022-09-09T10:12:10;13.32;;;5.55;;
61677;SDS011;47575;52.054;4.334;2022-09-09T10:14:49;12.70;;;5.20;;
61677;SDS011;47575;52.054;4.334;2022-09-09T10:17:25;9.02;;;4.80;;
61677;SDS011;47575;52.054;4.334;2022-09-09T10:20:04;12.88;;;5.35;;
61677;SDS011;47575;52.054;4.334;2022-09-09T10:22:46;12.82;;;5.32;;
61677;SDS011;47575;52.054;4.334;2022-09-09T10:25:22;14.13;;;6.32;;
61677;SDS011;47575;52.054;4.334;2022-09-09T10:28:04;15.63;;;6.32;;
61677;SDS011;47575;52.054;4.334;2022-09-09T10:30:58;11.68;;;5.32;;
61677;SDS011;47575;52.054;4.334;2022-09-09T10:33:37;11.77;;;6.10;;
61677;SDS011;47575;52.054;4.334;2022-09-09T10:36:15;11.27;;;7.18;;
61677;SDS011;47575;52.054;4.334;2022-09-09T10:38:46;13.25;;;5.90;;
61677;SDS011;47575;52.054;4.334;2022-09-09T10:41:26;13.65;;;5.90;;
61677;SDS011;47575;52.054;4.334;2022-09-09T10:44:17;11.15;;;5.10;;
61677;SDS011;47575;52.054;4.334;2022-09-09T10:50:00;13.60;;;5.88;;
61677;SDS011;47575;52.054;4.334;2022-09-09T10:52:53;13.73;;;5.68;;
61677;SDS011;47575;52.054;4.334;2022-09-09T10:55:28;14.02;;;4.97;;
61677;SDS011;47575;52.054;4.334;2022-09-09T10:58:02;10.98;;;4.60;;
61677;SDS011;47575;52.054;4.334;2022-09-09T11:00:36;11.98;;;4.72;;
61677;SDS011;47575;52.054;4.334;2022-09-09T11:03:11;11.75;;;4.30;;
61677;SDS011;47575;52.054;4.334;2022-09-09T11:05:44;11.60;;;4.97;;
61677;SDS011;47575;52.054;4.334;2022-09-09T11:08:17;8.40;;;4.10;;
61677;SDS011;47575;52.054;4.334;2022-09-09T11:10:48;9.85;;;3.38;;
61677;SDS011;47575;52.054;4.334;2022-09-09T11:13:22;12.57;;;4.80;;
61677;SDS011;47575;52.054;4.334;2022-09-09T11:15:59;9.73;;;3.60;;
61677;SDS011;47575;52.054;4.334;2022-09-09T11:18:32;9.48;;;3.40;;
61677;SDS011;47575;52.054;4.334;2022-09-09T11:21:06;11.13;;;3.58;;
61677;SDS011;47575;52.054;4.334;2022-09-09T11:23:39;9.55;;;3.33;;
61677;SDS011;47575;52.054;4.334;2022-09-09T11:26:10;9.95;;;3.50;;
61677;SDS011;47575;52.054;4.334;2022-09-09T11:28:46;9.98;;;3.83;;
61677;SDS011;47575;52.054;4.334;2022-09-09T11:31:32;12.40;;;4.10;;
61677;SDS011;47575;52.054;4.334;2022-09-09T11:34:21;9.75;;;3.40;;
61677;SDS011;47575;52.054;4.334;2022-09-09T11:42:45;8.48;;;4.95;;
61677;SDS011;47575;52.054;4.334;2022-09-09T11:45:21;13.55;;;5.30;;
61677;SDS011;47575;52.054;4.334;2022-09-09T11:47:51;9.23;;;4.45;;
61677;SDS011;47575;52.054;4.334;2022-09-09T11:50:34;9.02;;;4.22;;
61677;SDS011;47575;52.054;4.334;2022-09-09T11:53:04;10.95;;;4.43;;
61677;SDS011;47575;52.054;4.334;2022-09-09T11:56:05;8.60;;;4.38;;
61677;SDS011;47575;52.054;4.334;2022-09-09T11:58:42;7.93;;;3.70;;
61677;SDS011;47575;52.054;4.334;2022-09-09T12:01:30;9.02;;;2.83;;
61677;SDS011;47575;52.054;4.334;2022-09-09T12:04:06;8.27;;;2.72;;
61677;SDS011;47575;52.054;4.334;2022-09-09T12:06:54;6.95;;;2.30;;
61677;SDS011;47575;52.054;4.334;2022-09-09T12:12:06;7.00;;;2.70;;
61677;SDS011;47575;52.054;4.334;2022-09-09T12:14:54;9.50;;;3.22;;
61677;SDS011;47575;52.054;4.334;2022-09-09T12:17:24;6.80;;;3.10;;
61677;SDS011;47575;52.054;4.334;2022-09-09T12:19:59;8.23;;;2.78;;
61677;SDS011;47575;52.054;4.334;2022-09-09T12:22:33;7.97;;;2.63;;
61677;SDS011;47575;52.054;4.334;2022-09-09T12:25:09;9.60;;;2.95;;
61677;SDS011;47575;52.054;4.334;2022-09-09T12:27:49;7.32;;;3.00;;
61677;SDS011;47575;52.054;4.334;2022-09-09T12:30:28;9.38;;;3.28;;
61677;SDS011;47575;52.054;4.334;2022-09-09T12:33:00;11.38;;;3.58;;
61677;SDS011;47575;52.054;4.334;2022-09-09T12:35:28;9.10;;;3.15;;
61677;SDS011;47575;52.054;4.334;2022-09-09T12:38:00;9.50;;;2.90;;
61677;SDS011;47575;52.054;4.334;2022-09-09T12:40:29;10.70;;;3.28;;
61677;SDS011;47575;52.054;4.334;2022-09-09T12:43:01;9.48;;;3.30;;
61677;SDS011;47575;52.054;4.334;2022-09-09T12:45:29;6.43;;;2.60;;
61677;SDS011;47575;52.054;4.334;2022-09-09T12:47:59;7.35;;;3.15;;
61677;SDS011;47575;52.054;4.334;2022-09-09T12:50:30;9.50;;;3.05;;
61677;SDS011;47575;52.054;4.334;2022-09-09T12:53:01;6.85;;;2.28;;
61677;SDS011;47575;52.054;4.334;2022-09-09T12:55:34;8.07;;;2.65;;
61677;SDS011;47575;52.054;4.334;2022-09-09T12:58:03;7.97;;;2.95;;
61677;SDS011;47575;52.054;4.334;2022-09-09T13:00:32;5.22;;;2.40;;
61677;SDS011;47575;52.054;4.334;2022-09-09T13:03:02;8.35;;;2.60;;
61677;SDS011;47575;52.054;4.334;2022-09-09T13:05:42;8.10;;;2.92;;
61677;SDS011;47575;52.054;4.334;2022-09-09T13:08:11;7.78;;;2.97;;
61677;SDS011;47575;52.054;4.334;2022-09-09T13:10:41;7.20;;;2.42;;
61677;SDS011;47575;52.054;4.334;2022-09-09T13:15:47;7.70;;;2.55;;
61677;SDS011;47575;52.054;4.334;2022-09-09T13:18:16;7.72;;;2.22;;
61677;SDS011;47575;52.054;4.334;2022-09-09T13:20:48;12.50;;;2.80;;
61677;SDS011;47575;52.054;4.334;2022-09-09T13:23:19;7.85;;;2.58;;
61677;SDS011;47575;52.054;4.334;2022-09-09T13:25:54;10.95;;;3.45;;
61677;SDS011;47575;52.054;4.334;2022-09-09T13:28:23;7.70;;;2.78;;
61677;SDS011;47575;52.054;4.334;2022-09-09T13:30:58;9.07;;;2.58;;
61677;SDS011;47575;52.054;4.334;2022-09-09T13:33:30;4.20;;;1.05;;
61677;SDS011;47575;52.054;4.334;2022-09-09T13:35:59;4.60;;;1.00;;
61677;SDS011;47575;52.054;4.334;2022-09-09T13:38:32;3.10;;;0.70;;
61677;SDS011;47575;52.054;4.334;2022-09-09T13:41:03;4.55;;;1.10;;
61677;SDS011;47575;52.054;4.334;2022-09-09T13:43:34;6.18;;;1.48;;
61677;SDS011;47575;52.054;4.334;2022-09-09T13:46:04;6.97;;;1.45;;
61677;SDS011;47575;52.054;4.334;2022-09-09T13:48:53;5.38;;;1.50;;
61677;SDS011;47575;52.054;4.334;2022-09-09T13:51:26;5.72;;;1.27;;
61677;SDS011;47575;52.054;4.334;2022-09-09T13:54:00;6.20;;;1.63;;
61677;SDS011;47575;52.054;4.334;2022-09-09T13:56:27;7.72;;;1.70;;
61677;SDS011;47575;52.054;4.334;2022-09-09T13:58:55;9.88;;;2.33;;
61677;SDS011;47575;52.054;4.334;2022-09-09T14:01:23;9.70;;;2.35;;
61677;SDS011;47575;52.054;4.334;2022-09-09T14:03:50;11.00;;;2.58;;
61677;SDS011;47575;52.054;4.334;2022-09-09T14:06:18;6.97;;;2.15;;
61677;SDS011;47575;52.054;4.334;2022-09-09T14:08:47;8.85;;;2.53;;
61677;SDS011;47575;52.054;4.334;2022-09-09T14:11:17;10.60;;;2.58;;
61677;SDS011;47575;52.054;4.334;2022-09-09T14:13:46;7.95;;;2.35;;
61677;SDS011;47575;52.054;4.334;2022-09-09T14:16:15;10.82;;;2.50;;
61677;SDS011;47575;52.054;4.334;2022-09-09T14:18:43;12.13;;;2.70;;
61677;SDS011;47575;52.054;4.334;2022-09-09T14:21:11;10.90;;;2.50;;
61677;SDS011;47575;52.054;4.334;2022-09-09T14:23:38;9.85;;;2.30;;
61677;SDS011;47575;52.054;4.334;2022-09-09T14:26:06;9.40;;;2.30;;
61677;SDS011;47575;52.054;4.334;2022-09-09T14:28:35;9.95;;;1.92;;
61677;SDS011;47575;52.054;4.334;2022-09-09T14:31:03;8.77;;;2.13;;
61677;SDS011;47575;52.054;4.334;2022-09-09T14:33:31;8.93;;;1.60;;
61677;SDS011;47575;52.054;4.334;2022-09-09T14:35:59;8.82;;;1.70;;
61677;SDS011;47575;52.054;4.334;2022-09-09T14:38:28;9.98;;;1.52;;
61677;SDS011;47575;52.054;4.334;2022-09-09T14:40:57;13.95;;;1.75;;
61677;SDS011;47575;52.054;4.334;2022-09-09T14:43:25;9.70;;;2.17;;
61677;SDS011;47575;52.054;4.334;2022-09-09T14:45:55;7.20;;;1.73;;
61677;SDS011;47575;52.054;4.334;2022-09-09T14:48:22;9.30;;;1.90;;
61677;SDS011;47575;52.054;4.334;2022-09-09T14:50:49;9.80;;;2.15;;
61677;SDS011;47575;52.054;4.334;2022-09-09T14:53:17;6.65;;;1.70;;
61677;SDS011;47575;52.054;4.334;2022-09-09T14:55:44;12.15;;;2.38;;
61677;SDS011;47575;52.054;4.334;2022-09-09T14:58:12;8.98;;;1.90;;
61677;SDS011;47575;52.054;4.334;2022-09-09T15:00:40;8.43;;;2.00;;
61677;SDS011;47575;52.054;4.334;2022-09-09T15:03:09;10.50;;;2.15;;
61677;SDS011;47575;52.054;4.334;2022-09-09T15:05:36;9.18;;;2.50;;
61677;SDS011;47575;52.054;4.334;2022-09-09T15:08:04;9.35;;;2.30;;
61677;SDS011;47575;52.054;4.334;2022-09-09T15:10:31;11.77;;;2.50;;
61677;SDS011;47575;52.054;4.334;2022-09-09T15:12:58;9.98;;;2.38;;
61677;SDS011;47575;52.054;4.334;2022-09-09T15:15:26;10.95;;;2.10;;
61677;SDS011;47575;52.054;4.334;2022-09-09T15:17:53;9.63;;;2.10;;
61677;SDS011;47575;52.054;4.334;2022-09-09T15:20:22;7.80;;;2.08;;
61677;SDS011;47575;52.054;4.334;2022-09-09T15:22:49;7.28;;;2.42;;
61677;SDS011;47575;52.054;4.334;2022-09-09T15:25:18;7.15;;;1.98;;
61677;SDS011;47575;52.054;4.334;2022-09-09T15:27:45;12.90;;;3.13;;
61677;SDS011;47575;52.054;4.334;2022-09-09T15:30:13;13.85;;;3.05;;
61677;SDS011;47575;52.054;4.334;2022-09-09T15:32:40;9.77;;;2.67;;